sensor_id;sensor_type;location;lat;lon;timestamp;temperature;humidity
5278;DHT22;2662;51.194;6.614;2024-02-21T00:01:57;11.10;99.90
5278;DHT22;2662;51.194;6.614;2024-02-21T00:04:23;11.10;99.90
5278;DHT22;2662;51.194;6.614;2024-02-21T00:06:50;11.10;99.90
5278;DHT22;2662;51.194;6.614;2024-02-21T00:09:17;11.10;99.90
5278;DHT22;2662;51.194;6.614;2024-02-21T00:11:46;11.10;99.90
5278;DHT22;2662;51.194;6.614;2024-02-21T00:14:14;11.10;99.90
5278;DHT22;2662;51.194;6.614;2024-02-21T00:16:44;11.10;99.90
5278;DHT22;2662;51.194;6.614;2024-02-21T00:19:11;11.10;99.90
5278;DHT22;2662;51.194;6.614;2024-02-21T00:21:40;11.10;99.90
5278;DHT22;2662;51.194;6.614;2024-02-21T00:24:07;11.10;99.90
5278;DHT22;2662;51.194;6.614;2024-02-21T00:26:34;11.10;99.90
5278;DHT22;2662;51.194;6.614;2024-02-21T00:29:02;11.10;99.90
5278;DHT22;2662;51.194;6.614;2024-02-21T00:31:33;11.10;99.90
5278;DHT22;2662;51.194;6.614;2024-02-21T00:34:00;11.10;99.90
5278;DHT22;2662;51.194;6.614;2024-02-21T00:36:28;11.00;99.90
5278;DHT22;2662;51.194;6.614;2024-02-21T00:38:55;11.00;99.90
5278;DHT22;2662;51.194;6.614;2024-02-21T00:41:25;11.00;99.90
5278;DHT22;2662;51.194;6.614;2024-02-21T00:43:52;11.00;99.90
5278;DHT22;2662;51.194;6.614;2024-02-21T00:46:23;11.10;99.90
5278;DHT22;2662;51.194;6.614;2024-02-21T00:48:51;11.10;99.90
5278;DHT22;2662;51.194;6.614;2024-02-21T00:51:19;11.10;99.90
5278;DHT22;2662;51.194;6.614;2024-02-21T00:53:45;11.10;99.90
5278;DHT22;2662;51.194;6.614;2024-02-21T00:56:14;11.10;99.90
5278;DHT22;2662;51.194;6.614;2024-02-21T00:58:40;11.10;99.90
5278;DHT22;2662;51.194;6.614;2024-02-21T01:01:07;11.10;99.90
5278;DHT22;2662;51.194;6.614;2024-02-21T01:03:39;11.20;99.90
5278;DHT22;2662;51.194;6.614;2024-02-21T01:06:10;11.20;99.90
5278;DHT22;2662;51.194;6.614;2024-02-21T01:08:37;11.20;99.90
5278;DHT22;2662;51.194;6.614;2024-02-21T01:11:05;11.20;99.90
5278;DHT22;2662;51.194;6.614;2024-02-21T01:13:33;11.20;99.90
5278;DHT22;2662;51.194;6.614;2024-02-21T01:16:00;11.20;99.90
5278;DHT22;2662;51.194;6.614;2024-02-21T01:18:27;11.20;99.90
5278;DHT22;2662;51.194;6.614;2024-02-21T01:20:56;11.20;99.90
5278;DHT22;2662;51.194;6.614;2024-02-21T01:23:27;11.20;99.90
5278;DHT22;2662;51.194;6.614;2024-02-21T01:25:55;11.20;99.90
5278;DHT22;2662;51.194;6.614;2024-02-21T01:28:22;11.10;99.90
5278;DHT22;2662;51.194;6.614;2024-02-21T01:30:50;11.10;99.90
5278;DHT22;2662;51.194;6.614;2024-02-21T01:33:18;11.10;99.90
5278;DHT22;2662;51.194;6.614;2024-02-21T01:35:46;11.10;99.90
5278;DHT22;2662;51.194;6.614;2024-02-21T01:38:13;11.10;99.90
5278;DHT22;2662;51.194;6.614;2024-02-21T01:40:44;11.10;99.90
5278;DHT22;2662;51.194;6.614;2024-02-21T01:43:17;11.10;99.90
5278;DHT22;2662;51.194;6.614;2024-02-21T01:45:48;11.10;99.90
5278;DHT22;2662;51.194;6.614;2024-02-21T01:48:16;11.00;99.90
5278;DHT22;2662;51.194;6.614;2024-02-21T01:50:44;11.00;99.90
5278;DHT22;2662;51.194;6.614;2024-02-21T01:53:12;10.90;99.90
5278;DHT22;2662;51.194;6.614;2024-02-21T01:55:48;10.90;99.90
5278;DHT22;2662;51.194;6.614;2024-02-21T01:58:16;11.00;99.90
5278;DHT22;2662;51.194;6.614;2024-02-21T02:00:44;11.00;99.90
5278;DHT22;2662;51.194;6.614;2024-02-21T02:03:11;11.00;99.90
5278;DHT22;2662;51.194;6.614;2024-02-21T02:05:43;11.00;99.90
5278;DHT22;2662;51.194;6.614;2024-02-21T02:08:13;11.00;99.90
5278;DHT22;2662;51.194;6.614;2024-02-21T02:10:41;11.00;99.90
5278;DHT22;2662;51.194;6.614;2024-02-21T02:13:10;11.10;99.90
5278;DHT22;2662;51.194;6.614;2024-02-21T02:15:40;11.10;99.90
5278;DHT22;2662;51.194;6.614;2024-02-21T02:18:10;11.10;99.90
5278;DHT22;2662;51.194;6.614;2024-02-21T02:20:38;11.00;99.90
5278;DHT22;2662;51.194;6.614;2024-02-21T02:23:07;11.00;99.90
5278;DHT22;2662;51.194;6.614;2024-02-21T02:25:38;11.00;99.90
5278;DHT22;2662;51.194;6.614;2024-02-21T02:28:07;11.00;99.90
5278;DHT22;2662;51.194;6.614;2024-02-21T02:30:36;11.00;99.90
5278;DHT22;2662;51.194;6.614;2024-02-21T02:33:04;11.00;99.90
5278;DHT22;2662;51.194;6.614;2024-02-21T02:35:31;10.90;99.90
5278;DHT22;2662;51.194;6.614;2024-02-21T02:38:08;10.90;99.90
5278;DHT22;2662;51.194;6.614;2024-02-21T02:40:37;10.90;99.90
5278;DHT22;2662;51.194;6.614;2024-02-21T02:43:04;10.90;99.90
5278;DHT22;2662;51.194;6.614;2024-02-21T02:45:32;10.90;99.90
5278;DHT22;2662;51.194;6.614;2024-02-21T02:48:02;10.90;99.90
5278;DHT22;2662;51.194;6.614;2024-02-21T02:50:31;10.90;99.90
5278;DHT22;2662;51.194;6.614;2024-02-21T02:52:59;10.90;99.90
5278;DHT22;2662;51.194;6.614;2024-02-21T02:55:26;10.90;99.90
5278;DHT22;2662;51.194;6.614;2024-02-21T02:57:57;10.90;99.90
5278;DHT22;2662;51.194;6.614;2024-02-21T03:00:28;10.80;99.90
5278;DHT22;2662;51.194;6.614;2024-02-21T03:02:55;10.70;99.90
5278;DHT22;2662;51.194;6.614;2024-02-21T03:05:22;10.70;99.90
5278;DHT22;2662;51.194;6.614;2024-02-21T03:07:49;10.70;99.90
5278;DHT22;2662;51.194;6.614;2024-02-21T03:10:17;10.70;99.90
5278;DHT22;2662;51.194;6.614;2024-02-21T03:12:45;10.70;99.90
5278;DHT22;2662;51.194;6.614;2024-02-21T03:15:15;10.70;99.90
5278;DHT22;2662;51.194;6.614;2024-02-21T03:17:42;10.70;99.90
5278;DHT22;2662;51.194;6.614;2024-02-21T03:20:11;10.80;99.90
5278;DHT22;2662;51.194;6.614;2024-02-21T03:22:38;10.80;99.90
5278;DHT22;2662;51.194;6.614;2024-02-21T03:25:10;10.80;99.90
5278;DHT22;2662;51.194;6.614;2024-02-21T03:27:38;10.70;99.90
5278;DHT22;2662;51.194;6.614;2024-02-21T03:30:06;10.80;99.90
5278;DHT22;2662;51.194;6.614;2024-02-21T03:32:36;10.80;99.90
5278;DHT22;2662;51.194;6.614;2024-02-21T03:35:07;10.80;99.90
5278;DHT22;2662;51.194;6.614;2024-02-21T03:37:35;10.80;99.90
5278;DHT22;2662;51.194;6.614;2024-02-21T03:40:08;10.80;99.90
5278;DHT22;2662;51.194;6.614;2024-02-21T03:42:36;10.80;99.90
5278;DHT22;2662;51.194;6.614;2024-02-21T03:45:05;10.80;99.90
5278;DHT22;2662;51.194;6.614;2024-02-21T03:47:36;10.80;99.90
5278;DHT22;2662;51.194;6.614;2024-02-21T03:50:07;10.90;99.90
5278;DHT22;2662;51.194;6.614;2024-02-21T03:52:34;10.90;99.90
5278;DHT22;2662;51.194;6.614;2024-02-21T03:55:01;10.90;99.90
5278;DHT22;2662;51.194;6.614;2024-02-21T03:57:29;10.90;99.90
5278;DHT22;2662;51.194;6.614;2024-02-21T03:59:59;10.90;99.90
5278;DHT22;2662;51.194;6.614;2024-02-21T04:02:26;10.90;99.90
5278;DHT22;2662;51.194;6.614;2024-02-21T04:04:55;10.90;99.90
5278;DHT22;2662;51.194;6.614;2024-02-21T04:07:22;10.90;99.90
5278;DHT22;2662;51.194;6.614;2024-02-21T04:09:49;10.90;99.90
5278;DHT22;2662;51.194;6.614;2024-02-21T04:12:16;10.90;99.90
5278;DHT22;2662;51.194;6.614;2024-02-21T04:14:43;10.90;99.90
5278;DHT22;2662;51.194;6.614;2024-02-21T04:17:10;10.90;99.90
5278;DHT22;2662;51.194;6.614;2024-02-21T04:19:39;10.90;99.90
5278;DHT22;2662;51.194;6.614;2024-02-21T04:22:07;10.90;99.90
5278;DHT22;2662;51.194;6.614;2024-02-21T04:24:34;10.90;99.90
5278;DHT22;2662;51.194;6.614;2024-02-21T04:27:01;10.90;99.90
5278;DHT22;2662;51.194;6.614;2024-02-21T04:29:31;11.00;99.90
5278;DHT22;2662;51.194;6.614;2024-02-21T04:31:59;11.00;99.90
5278;DHT22;2662;51.194;6.614;2024-02-21T04:34:26;10.90;99.90
5278;DHT22;2662;51.194;6.614;2024-02-21T04:36:54;10.90;99.90
5278;DHT22;2662;51.194;6.614;2024-02-21T04:39:23;10.90;99.90
5278;DHT22;2662;51.194;6.614;2024-02-21T04:41:51;10.80;99.90
5278;DHT22;2662;51.194;6.614;2024-02-21T04:44:19;10.90;99.90
5278;DHT22;2662;51.194;6.614;2024-02-21T04:46:48;10.90;99.90
5278;DHT22;2662;51.194;6.614;2024-02-21T04:49:16;10.90;99.90
5278;DHT22;2662;51.194;6.614;2024-02-21T04:51:43;10.90;99.90
5278;DHT22;2662;51.194;6.614;2024-02-21T04:54:11;10.90;99.90
5278;DHT22;2662;51.194;6.614;2024-02-21T04:56:39;10.80;99.90
5278;DHT22;2662;51.194;6.614;2024-02-21T04:59:06;10.80;99.90
5278;DHT22;2662;51.194;6.614;2024-02-21T05:01:35;10.80;99.90
5278;DHT22;2662;51.194;6.614;2024-02-21T05:04:02;10.80;99.90
5278;DHT22;2662;51.194;6.614;2024-02-21T05:06:29;10.80;99.90
5278;DHT22;2662;51.194;6.614;2024-02-21T05:09:05;10.90;99.90
5278;DHT22;2662;51.194;6.614;2024-02-21T05:11:32;10.80;99.90
5278;DHT22;2662;51.194;6.614;2024-02-21T05:14:04;10.80;99.90
5278;DHT22;2662;51.194;6.614;2024-02-21T05:16:32;10.80;99.90
5278;DHT22;2662;51.194;6.614;2024-02-21T05:19:00;10.80;99.90
5278;DHT22;2662;51.194;6.614;2024-02-21T05:21:27;10.80;99.90
5278;DHT22;2662;51.194;6.614;2024-02-21T05:23:56;10.80;99.90
5278;DHT22;2662;51.194;6.614;2024-02-21T05:26:25;10.80;99.90
5278;DHT22;2662;51.194;6.614;2024-02-21T05:28:53;10.80;99.90
5278;DHT22;2662;51.194;6.614;2024-02-21T05:31:21;10.80;99.90
5278;DHT22;2662;51.194;6.614;2024-02-21T05:33:48;10.80;99.90
5278;DHT22;2662;51.194;6.614;2024-02-21T05:36:16;10.80;99.90
5278;DHT22;2662;51.194;6.614;2024-02-21T05:38:44;10.80;99.90
5278;DHT22;2662;51.194;6.614;2024-02-21T05:41:12;10.80;99.90
5278;DHT22;2662;51.194;6.614;2024-02-21T05:43:39;10.70;99.90
5278;DHT22;2662;51.194;6.614;2024-02-21T05:46:06;10.70;99.90
5278;DHT22;2662;51.194;6.614;2024-02-21T05:48:39;10.70;99.90
5278;DHT22;2662;51.194;6.614;2024-02-21T05:51:06;10.70;99.90
5278;DHT22;2662;51.194;6.614;2024-02-21T05:53:33;10.70;99.90
5278;DHT22;2662;51.194;6.614;2024-02-21T05:56:10;10.70;99.90
5278;DHT22;2662;51.194;6.614;2024-02-21T05:58:37;10.70;99.90
5278;DHT22;2662;51.194;6.614;2024-02-21T06:01:04;10.70;99.90
5278;DHT22;2662;51.194;6.614;2024-02-21T06:03:34;10.70;99.90
5278;DHT22;2662;51.194;6.614;2024-02-21T06:06:05;10.70;99.90
5278;DHT22;2662;51.194;6.614;2024-02-21T06:08:33;10.60;99.90
5278;DHT22;2662;51.194;6.614;2024-02-21T06:11:01;10.60;99.90
5278;DHT22;2662;51.194;6.614;2024-02-21T06:13:28;10.60;99.90
5278;DHT22;2662;51.194;6.614;2024-02-21T06:15:55;10.60;99.90
5278;DHT22;2662;51.194;6.614;2024-02-21T06:18:23;10.60;99.90
5278;DHT22;2662;51.194;6.614;2024-02-21T06:20:51;10.60;99.90
5278;DHT22;2662;51.194;6.614;2024-02-21T06:23:19;10.60;99.90
5278;DHT22;2662;51.194;6.614;2024-02-21T06:25:46;10.70;99.90
5278;DHT22;2662;51.194;6.614;2024-02-21T06:28:19;10.60;99.90
5278;DHT22;2662;51.194;6.614;2024-02-21T06:30:47;10.60;99.90
5278;DHT22;2662;51.194;6.614;2024-02-21T06:33:14;10.60;99.90
5278;DHT22;2662;51.194;6.614;2024-02-21T06:35:50;10.60;99.90
5278;DHT22;2662;51.194;6.614;2024-02-21T06:38:18;10.60;99.90
5278;DHT22;2662;51.194;6.614;2024-02-21T06:40:46;10.60;99.90
5278;DHT22;2662;51.194;6.614;2024-02-21T06:43:17;10.60;99.90
5278;DHT22;2662;51.194;6.614;2024-02-21T06:45:44;10.60;99.90
5278;DHT22;2662;51.194;6.614;2024-02-21T06:48:17;10.60;99.90
5278;DHT22;2662;51.194;6.614;2024-02-21T06:50:48;10.70;99.90
5278;DHT22;2662;51.194;6.614;2024-02-21T06:53:16;10.60;99.90
5278;DHT22;2662;51.194;6.614;2024-02-21T06:55:43;10.60;99.90
5278;DHT22;2662;51.194;6.614;2024-02-21T06:58:10;10.60;99.90
5278;DHT22;2662;51.194;6.614;2024-02-21T07:00:39;10.70;99.90
5278;DHT22;2662;51.194;6.614;2024-02-21T07:03:06;10.70;99.90
5278;DHT22;2662;51.194;6.614;2024-02-21T07:05:34;10.70;99.90
5278;DHT22;2662;51.194;6.614;2024-02-21T07:08:02;10.70;99.90
5278;DHT22;2662;51.194;6.614;2024-02-21T07:10:32;10.70;99.90
5278;DHT22;2662;51.194;6.614;2024-02-21T07:12:59;10.70;99.90
5278;DHT22;2662;51.194;6.614;2024-02-21T07:15:27;10.80;99.90
5278;DHT22;2662;51.194;6.614;2024-02-21T07:17:56;10.70;99.90
5278;DHT22;2662;51.194;6.614;2024-02-21T07:20:23;10.70;99.90
5278;DHT22;2662;51.194;6.614;2024-02-21T07:22:50;10.70;99.90
5278;DHT22;2662;51.194;6.614;2024-02-21T07:25:18;10.80;99.90
5278;DHT22;2662;51.194;6.614;2024-02-21T07:27:48;10.90;99.90
5278;DHT22;2662;51.194;6.614;2024-02-21T07:30:16;10.90;99.90
5278;DHT22;2662;51.194;6.614;2024-02-21T07:32:43;10.80;99.90
5278;DHT22;2662;51.194;6.614;2024-02-21T07:35:11;10.80;99.90
5278;DHT22;2662;51.194;6.614;2024-02-21T07:37:38;10.70;99.90
5278;DHT22;2662;51.194;6.614;2024-02-21T07:40:06;10.70;99.90
5278;DHT22;2662;51.194;6.614;2024-02-21T07:42:39;10.80;99.90
5278;DHT22;2662;51.194;6.614;2024-02-21T07:45:08;10.80;99.90
5278;DHT22;2662;51.194;6.614;2024-02-21T07:47:36;10.70;99.90
5278;DHT22;2662;51.194;6.614;2024-02-21T07:50:05;10.70;99.90
5278;DHT22;2662;51.194;6.614;2024-02-21T07:52:33;10.70;99.90
5278;DHT22;2662;51.194;6.614;2024-02-21T07:55:00;10.60;99.90
5278;DHT22;2662;51.194;6.614;2024-02-21T07:57:27;10.60;99.90
5278;DHT22;2662;51.194;6.614;2024-02-21T07:59:57;10.50;99.90
5278;DHT22;2662;51.194;6.614;2024-02-21T08:02:25;10.50;99.90
5278;DHT22;2662;51.194;6.614;2024-02-21T08:04:52;10.60;99.90
5278;DHT22;2662;51.194;6.614;2024-02-21T08:07:20;10.50;99.90
5278;DHT22;2662;51.194;6.614;2024-02-21T08:09:46;10.50;99.90
5278;DHT22;2662;51.194;6.614;2024-02-21T08:12:14;10.40;99.90
5278;DHT22;2662;51.194;6.614;2024-02-21T08:14:41;10.40;99.90
5278;DHT22;2662;51.194;6.614;2024-02-21T08:17:08;10.40;99.90
5278;DHT22;2662;51.194;6.614;2024-02-21T08:19:39;10.40;99.90
5278;DHT22;2662;51.194;6.614;2024-02-21T08:22:07;10.50;99.90
5278;DHT22;2662;51.194;6.614;2024-02-21T08:24:34;10.60;99.90
5278;DHT22;2662;51.194;6.614;2024-02-21T08:27:04;10.60;99.90
5278;DHT22;2662;51.194;6.614;2024-02-21T08:29:32;10.70;99.90
5278;DHT22;2662;51.194;6.614;2024-02-21T08:31:59;10.70;99.90
5278;DHT22;2662;51.194;6.614;2024-02-21T08:34:27;10.70;99.90
5278;DHT22;2662;51.194;6.614;2024-02-21T08:36:58;10.80;99.90
5278;DHT22;2662;51.194;6.614;2024-02-21T08:39:25;10.90;99.90
5278;DHT22;2662;51.194;6.614;2024-02-21T08:41:54;10.80;99.90
5278;DHT22;2662;51.194;6.614;2024-02-21T08:44:23;10.90;99.90
5278;DHT22;2662;51.194;6.614;2024-02-21T08:46:51;10.80;99.90
5278;DHT22;2662;51.194;6.614;2024-02-21T08:49:18;10.70;99.90
5278;DHT22;2662;51.194;6.614;2024-02-21T08:51:46;10.70;99.90
5278;DHT22;2662;51.194;6.614;2024-02-21T08:54:15;10.80;99.90
5278;DHT22;2662;51.194;6.614;2024-02-21T08:56:42;10.80;99.90
5278;DHT22;2662;51.194;6.614;2024-02-21T08:59:09;10.90;99.90
5278;DHT22;2662;51.194;6.614;2024-02-21T09:01:38;11.00;99.90
5278;DHT22;2662;51.194;6.614;2024-02-21T09:04:06;11.00;99.90
5278;DHT22;2662;51.194;6.614;2024-02-21T09:06:33;11.20;99.90
5278;DHT22;2662;51.194;6.614;2024-02-21T09:09:07;11.20;99.90
5278;DHT22;2662;51.194;6.614;2024-02-21T09:11:35;11.30;99.90
5278;DHT22;2662;51.194;6.614;2024-02-21T09:14:02;11.30;99.90
5278;DHT22;2662;51.194;6.614;2024-02-21T09:16:31;11.40;99.90
5278;DHT22;2662;51.194;6.614;2024-02-21T09:18:58;11.30;99.90
5278;DHT22;2662;51.194;6.614;2024-02-21T09:21:26;11.40;99.90
5278;DHT22;2662;51.194;6.614;2024-02-21T09:23:53;11.40;99.90
5278;DHT22;2662;51.194;6.614;2024-02-21T09:26:21;11.40;99.90
5278;DHT22;2662;51.194;6.614;2024-02-21T09:28:52;11.40;99.90
5278;DHT22;2662;51.194;6.614;2024-02-21T09:31:19;11.40;99.90
5278;DHT22;2662;51.194;6.614;2024-02-21T09:33:46;11.50;99.90
5278;DHT22;2662;51.194;6.614;2024-02-21T09:36:14;11.50;99.90
5278;DHT22;2662;51.194;6.614;2024-02-21T09:38:41;11.60;99.90
5278;DHT22;2662;51.194;6.614;2024-02-21T09:41:16;11.60;99.90
5278;DHT22;2662;51.194;6.614;2024-02-21T09:43:46;11.60;99.90
5278;DHT22;2662;51.194;6.614;2024-02-21T09:46:18;11.70;99.90
5278;DHT22;2662;51.194;6.614;2024-02-21T09:49:08;11.80;99.90
5278;DHT22;2662;51.194;6.614;2024-02-21T09:51:42;11.80;99.90
5278;DHT22;2662;51.194;6.614;2024-02-21T09:54:10;11.80;99.90
5278;DHT22;2662;51.194;6.614;2024-02-21T09:56:39;11.80;99.90
5278;DHT22;2662;51.194;6.614;2024-02-21T09:59:07;11.90;99.90
5278;DHT22;2662;51.194;6.614;2024-02-21T10:01:38;12.00;99.90
5278;DHT22;2662;51.194;6.614;2024-02-21T10:04:06;12.00;99.90
5278;DHT22;2662;51.194;6.614;2024-02-21T10:06:34;12.10;99.90
5278;DHT22;2662;51.194;6.614;2024-02-21T10:09:03;12.10;99.90
5278;DHT22;2662;51.194;6.614;2024-02-21T10:11:30;12.10;99.90
5278;DHT22;2662;51.194;6.614;2024-02-21T10:14:04;12.00;99.90
5278;DHT22;2662;51.194;6.614;2024-02-21T10:16:31;12.00;99.90
5278;DHT22;2662;51.194;6.614;2024-02-21T10:19:00;12.00;99.90
5278;DHT22;2662;51.194;6.614;2024-02-21T10:21:29;12.10;99.90
5278;DHT22;2662;51.194;6.614;2024-02-21T10:23:57;12.10;99.90
5278;DHT22;2662;51.194;6.614;2024-02-21T10:26:24;12.00;99.90
5278;DHT22;2662;51.194;6.614;2024-02-21T10:28:53;12.10;99.90
5278;DHT22;2662;51.194;6.614;2024-02-21T10:31:22;12.10;99.90
5278;DHT22;2662;51.194;6.614;2024-02-21T10:33:54;12.20;99.90
5278;DHT22;2662;51.194;6.614;2024-02-21T10:36:23;12.30;99.90
5278;DHT22;2662;51.194;6.614;2024-02-21T10:38:50;12.40;99.90
5278;DHT22;2662;51.194;6.614;2024-02-21T10:41:22;12.30;99.90
5278;DHT22;2662;51.194;6.614;2024-02-21T10:43:52;12.50;99.90
5278;DHT22;2662;51.194;6.614;2024-02-21T10:46:23;12.50;99.90
5278;DHT22;2662;51.194;6.614;2024-02-21T10:49:00;12.50;99.90
5278;DHT22;2662;51.194;6.614;2024-02-21T10:51:33;12.60;99.90
5278;DHT22;2662;51.194;6.614;2024-02-21T10:54:13;12.70;99.90
5278;DHT22;2662;51.194;6.614;2024-02-21T10:56:57;12.90;99.90
5278;DHT22;2662;51.194;6.614;2024-02-21T10:59:28;13.00;99.90
5278;DHT22;2662;51.194;6.614;2024-02-21T11:02:03;13.20;99.90
5278;DHT22;2662;51.194;6.614;2024-02-21T11:04:32;13.40;99.90
5278;DHT22;2662;51.194;6.614;2024-02-21T11:07:05;13.40;99.90
5278;DHT22;2662;51.194;6.614;2024-02-21T11:09:33;13.40;99.90
5278;DHT22;2662;51.194;6.614;2024-02-21T11:12:02;13.50;99.90
5278;DHT22;2662;51.194;6.614;2024-02-21T11:14:34;13.60;99.90
5278;DHT22;2662;51.194;6.614;2024-02-21T11:17:14;13.70;99.90
5278;DHT22;2662;51.194;6.614;2024-02-21T11:19:41;13.80;99.90
5278;DHT22;2662;51.194;6.614;2024-02-21T11:22:16;13.80;99.90
5278;DHT22;2662;51.194;6.614;2024-02-21T11:24:43;13.90;99.90
5278;DHT22;2662;51.194;6.614;2024-02-21T11:27:12;13.90;99.90
5278;DHT22;2662;51.194;6.614;2024-02-21T11:29:40;13.80;99.90
5278;DHT22;2662;51.194;6.614;2024-02-21T11:32:09;13.80;99.90
5278;DHT22;2662;51.194;6.614;2024-02-21T11:34:37;13.70;99.90
5278;DHT22;2662;51.194;6.614;2024-02-21T11:37:16;13.60;99.90
5278;DHT22;2662;51.194;6.614;2024-02-21T11:39:44;13.50;99.90
5278;DHT22;2662;51.194;6.614;2024-02-21T11:42:16;13.40;99.90
5278;DHT22;2662;51.194;6.614;2024-02-21T11:44:43;13.30;99.90
5278;DHT22;2662;51.194;6.614;2024-02-21T11:47:10;13.30;99.90
5278;DHT22;2662;51.194;6.614;2024-02-21T11:49:38;13.20;99.90
5278;DHT22;2662;51.194;6.614;2024-02-21T11:52:07;13.20;99.90
5278;DHT22;2662;51.194;6.614;2024-02-21T11:54:38;13.20;99.90
5278;DHT22;2662;51.194;6.614;2024-02-21T11:57:05;13.10;99.90
5278;DHT22;2662;51.194;6.614;2024-02-21T11:59:33;12.90;99.90
5278;DHT22;2662;51.194;6.614;2024-02-21T12:02:04;12.70;99.90
5278;DHT22;2662;51.194;6.614;2024-02-21T12:04:32;12.70;99.90
5278;DHT22;2662;51.194;6.614;2024-02-21T12:06:59;12.80;99.90
5278;DHT22;2662;51.194;6.614;2024-02-21T12:09:29;12.70;99.90
5278;DHT22;2662;51.194;6.614;2024-02-21T12:12:06;12.80;99.90
5278;DHT22;2662;51.194;6.614;2024-02-21T12:14:35;13.00;99.90
5278;DHT22;2662;51.194;6.614;2024-02-21T12:17:04;13.00;99.90
5278;DHT22;2662;51.194;6.614;2024-02-21T12:19:34;13.10;99.90
5278;DHT22;2662;51.194;6.614;2024-02-21T12:22:01;13.30;99.90
5278;DHT22;2662;51.194;6.614;2024-02-21T12:24:31;13.40;99.90
5278;DHT22;2662;51.194;6.614;2024-02-21T12:27:00;13.50;99.90
5278;DHT22;2662;51.194;6.614;2024-02-21T12:29:29;13.50;99.90
5278;DHT22;2662;51.194;6.614;2024-02-21T12:31:56;13.70;99.90
5278;DHT22;2662;51.194;6.614;2024-02-21T12:34:23;14.00;99.90
5278;DHT22;2662;51.194;6.614;2024-02-21T12:36:52;14.20;99.90
5278;DHT22;2662;51.194;6.614;2024-02-21T12:39:19;14.20;99.90
5278;DHT22;2662;51.194;6.614;2024-02-21T12:41:46;14.20;99.90
5278;DHT22;2662;51.194;6.614;2024-02-21T12:44:15;14.10;99.90
5278;DHT22;2662;51.194;6.614;2024-02-21T12:46:44;14.00;99.90
5278;DHT22;2662;51.194;6.614;2024-02-21T12:49:11;14.10;99.90
5278;DHT22;2662;51.194;6.614;2024-02-21T12:51:37;14.00;99.90
5278;DHT22;2662;51.194;6.614;2024-02-21T12:54:05;14.10;99.90
5278;DHT22;2662;51.194;6.614;2024-02-21T12:56:35;14.30;99.90
5278;DHT22;2662;51.194;6.614;2024-02-21T12:59:03;14.40;99.90
5278;DHT22;2662;51.194;6.614;2024-02-21T13:01:32;14.30;99.90
5278;DHT22;2662;51.194;6.614;2024-02-21T13:03:59;14.40;99.90
5278;DHT22;2662;51.194;6.614;2024-02-21T13:06:29;14.30;99.90
5278;DHT22;2662;51.194;6.614;2024-02-21T13:08:56;14.30;99.90
5278;DHT22;2662;51.194;6.614;2024-02-21T13:11:26;14.50;99.90
5278;DHT22;2662;51.194;6.614;2024-02-21T13:13:56;14.70;99.90
5278;DHT22;2662;51.194;6.614;2024-02-21T13:16:23;14.70;99.90
5278;DHT22;2662;51.194;6.614;2024-02-21T13:18:53;14.70;99.90
5278;DHT22;2662;51.194;6.614;2024-02-21T13:21:23;14.80;99.90
5278;DHT22;2662;51.194;6.614;2024-02-21T13:23:50;14.70;99.90
5278;DHT22;2662;51.194;6.614;2024-02-21T13:26:19;14.70;99.90
5278;DHT22;2662;51.194;6.614;2024-02-21T13:28:46;14.70;99.90
5278;DHT22;2662;51.194;6.614;2024-02-21T13:31:13;14.60;99.90
5278;DHT22;2662;51.194;6.614;2024-02-21T13:33:42;14.50;99.90
5278;DHT22;2662;51.194;6.614;2024-02-21T13:36:21;14.60;99.90
5278;DHT22;2662;51.194;6.614;2024-02-21T13:38:49;14.50;99.90
5278;DHT22;2662;51.194;6.614;2024-02-21T13:41:17;14.50;99.90
5278;DHT22;2662;51.194;6.614;2024-02-21T13:43:43;14.40;99.90
5278;DHT22;2662;51.194;6.614;2024-02-21T13:46:12;14.30;99.90
5278;DHT22;2662;51.194;6.614;2024-02-21T13:48:40;14.20;99.90
5278;DHT22;2662;51.194;6.614;2024-02-21T13:51:08;14.10;99.90
5278;DHT22;2662;51.194;6.614;2024-02-21T13:53:38;14.00;99.90
5278;DHT22;2662;51.194;6.614;2024-02-21T13:56:05;14.10;99.90
5278;DHT22;2662;51.194;6.614;2024-02-21T13:58:38;14.10;99.90
5278;DHT22;2662;51.194;6.614;2024-02-21T14:01:06;14.00;99.90
5278;DHT22;2662;51.194;6.614;2024-02-21T14:03:34;14.00;99.90
5278;DHT22;2662;51.194;6.614;2024-02-21T14:06:01;14.10;99.90
5278;DHT22;2662;51.194;6.614;2024-02-21T14:08:29;14.00;99.90
5278;DHT22;2662;51.194;6.614;2024-02-21T14:11:01;14.20;99.90
5278;DHT22;2662;51.194;6.614;2024-02-21T14:13:28;14.20;99.90
5278;DHT22;2662;51.194;6.614;2024-02-21T14:15:55;14.30;99.90
5278;DHT22;2662;51.194;6.614;2024-02-21T14:18:22;14.50;99.90
5278;DHT22;2662;51.194;6.614;2024-02-21T14:20:50;14.50;99.90
5278;DHT22;2662;51.194;6.614;2024-02-21T14:23:18;14.60;99.90
5278;DHT22;2662;51.194;6.614;2024-02-21T14:25:45;14.60;99.90
5278;DHT22;2662;51.194;6.614;2024-02-21T14:28:17;14.60;99.90
5278;DHT22;2662;51.194;6.614;2024-02-21T14:30:44;14.60;99.90
5278;DHT22;2662;51.194;6.614;2024-02-21T14:33:14;14.60;99.90
5278;DHT22;2662;51.194;6.614;2024-02-21T14:35:41;14.70;99.90
5278;DHT22;2662;51.194;6.614;2024-02-21T14:38:08;14.60;99.90
5278;DHT22;2662;51.194;6.614;2024-02-21T14:40:35;14.60;99.90
5278;DHT22;2662;51.194;6.614;2024-02-21T14:43:03;14.60;99.90
5278;DHT22;2662;51.194;6.614;2024-02-21T14:45:32;14.50;99.90
5278;DHT22;2662;51.194;6.614;2024-02-21T14:48:01;14.50;99.90
5278;DHT22;2662;51.194;6.614;2024-02-21T14:50:29;14.50;99.90
5278;DHT22;2662;51.194;6.614;2024-02-21T14:52:56;14.50;99.90
5278;DHT22;2662;51.194;6.614;2024-02-21T14:55:25;14.40;99.90
5278;DHT22;2662;51.194;6.614;2024-02-21T14:57:52;14.30;99.90
5278;DHT22;2662;51.194;6.614;2024-02-21T15:00:20;14.30;99.90
5278;DHT22;2662;51.194;6.614;2024-02-21T15:02:57;14.40;99.90
5278;DHT22;2662;51.194;6.614;2024-02-21T15:05:25;14.30;99.90
5278;DHT22;2662;51.194;6.614;2024-02-21T15:07:55;14.30;99.90
5278;DHT22;2662;51.194;6.614;2024-02-21T15:10:24;14.20;99.90
5278;DHT22;2662;51.194;6.614;2024-02-21T15:12:52;14.20;99.90
5278;DHT22;2662;51.194;6.614;2024-02-21T15:15:18;14.10;99.90
5278;DHT22;2662;51.194;6.614;2024-02-21T15:17:46;14.00;99.90
5278;DHT22;2662;51.194;6.614;2024-02-21T15:20:17;13.90;99.90
5278;DHT22;2662;51.194;6.614;2024-02-21T15:22:44;13.80;99.90
5278;DHT22;2662;51.194;6.614;2024-02-21T15:25:15;13.80;99.90
5278;DHT22;2662;51.194;6.614;2024-02-21T15:27:43;13.70;99.90
5278;DHT22;2662;51.194;6.614;2024-02-21T15:30:12;13.70;99.90
5278;DHT22;2662;51.194;6.614;2024-02-21T15:32:42;13.70;99.90
5278;DHT22;2662;51.194;6.614;2024-02-21T15:35:11;13.60;99.90
5278;DHT22;2662;51.194;6.614;2024-02-21T15:37:39;13.50;99.90
5278;DHT22;2662;51.194;6.614;2024-02-21T15:40:07;13.50;99.90
5278;DHT22;2662;51.194;6.614;2024-02-21T15:42:35;13.50;99.90
5278;DHT22;2662;51.194;6.614;2024-02-21T15:45:07;13.50;99.90
5278;DHT22;2662;51.194;6.614;2024-02-21T15:47:35;13.50;99.90
5278;DHT22;2662;51.194;6.614;2024-02-21T15:50:03;13.50;99.90
5278;DHT22;2662;51.194;6.614;2024-02-21T15:52:32;13.50;99.90
5278;DHT22;2662;51.194;6.614;2024-02-21T15:55:00;13.50;99.90
5278;DHT22;2662;51.194;6.614;2024-02-21T15:57:30;13.40;99.90
5278;DHT22;2662;51.194;6.614;2024-02-21T15:59:57;13.30;99.90
5278;DHT22;2662;51.194;6.614;2024-02-21T16:02:30;13.20;99.90
5278;DHT22;2662;51.194;6.614;2024-02-21T16:04:58;13.10;99.90
5278;DHT22;2662;51.194;6.614;2024-02-21T16:07:25;13.10;99.90
5278;DHT22;2662;51.194;6.614;2024-02-21T16:09:52;13.10;99.90
5278;DHT22;2662;51.194;6.614;2024-02-21T16:12:20;13.10;99.90